Time;durP1;ratioP1;P1;durP2;ratioP2;P2;SDS_P1;SDS_P2;PMS_P1;PMS_P2;Temp;Humidity;BMP_temperature;BMP_pressure;BME280_temperature;BME280_humidity;BME280_pressure;Samples;Min_cycle;Max_cycle;Signal;HPM_P1;HPM_P2
2023/06/28 00:00:13;;;;;;;0.40;0.40;;;14.90;99.90;;;;;;5134369;28;20031;-71
2023/06/28 00:02:38;;;;;;;0.40;0.40;;;14.80;99.90;;;;;;5117802;27;20420;-70
2023/06/28 00:05:07;;;;;;;0.40;0.40;;;14.90;99.90;;;;;;5138596;27;20050;-71
2023/06/28 00:07:34;;;;;;;0.40;0.40;;;14.90;99.90;;;;;;5138106;27;20053;-71
2023/06/28 00:09:59;;;;;;;0.40;0.40;;;14.90;99.90;;;;;;5138339;27;20440;-71
2023/06/28 00:12:26;;;;;;;0.40;0.40;;;14.90;99.90;;;;;;5138055;27;20125;-71
2023/06/28 00:14:53;;;;;;;0.40;0.40;;;14.90;99.90;;;;;;5137949;27;20081;-71
2023/06/28 00:17:27;;;;;;;0.40;0.40;;;14.90;99.90;;;;;;5137668;27;20064;-70
2023/06/28 00:19:56;;;;;;;0.40;0.40;;;14.90;99.90;;;;;;5138359;27;20091;-70
2023/06/28 00:22:31;;;;;;;0.40;0.40;;;14.90;99.90;;;;;;5137798;27;20103;-70
2023/06/28 00:24:59;;;;;;;0.30;0.30;;;14.90;99.90;;;;;;5137919;27;20034;-71
2023/06/28 00:27:25;;;;;;;0.40;0.40;;;14.90;99.90;;;;;;5137799;27;20071;-71
2023/06/28 00:29:51;;;;;;;0.40;0.40;;;14.90;99.90;;;;;;5137784;27;20117;-71
2023/06/28 00:32:16;;;;;;;0.40;0.40;;;14.90;99.90;;;;;;5153808;27;20419;-71
2023/06/28 00:34:42;;;;;;;0.40;0.40;;;14.90;99.90;;;;;;5137526;27;20054;-71
2023/06/28 00:37:08;;;;;;;0.40;0.40;;;14.90;99.90;;;;;;5137612;27;20079;-72
2023/06/28 00:39:34;;;;;;;0.40;0.40;;;14.90;99.90;;;;;;5137638;27;20091;-71
2023/06/28 00:42:01;;;;;;;0.40;0.40;;;14.80;99.90;;;;;;5137501;27;20061;-71
2023/06/28 00:44:27;;;;;;;0.45;0.45;;;14.80;99.90;;;;;;5137370;27;20035;-71
2023/06/28 00:46:54;;;;;;;0.45;0.45;;;14.80;99.90;;;;;;5137431;27;20043;-71
2023/06/28 00:49:20;;;;;;;0.30;0.30;;;14.80;99.90;;;;;;5137327;27;20039;-70
2023/06/28 00:51:46;;;;;;;0.40;0.40;;;14.80;99.90;;;;;;5119167;27;20112;-71
2023/06/28 00:54:12;;;;;;;0.40;0.40;;;14.80;99.90;;;;;;5119045;27;20104;-71
2023/06/28 00:56:38;;;;;;;0.40;0.40;;;14.80;99.90;;;;;;5137199;27;20031;-71
2023/06/28 00:59:05;;;;;;;0.40;0.40;;;14.80;99.90;;;;;;5137216;27;20064;-72
2023/06/28 01:01:31;;;;;;;0.40;0.40;;;14.80;99.90;;;;;;5136833;27;20039;-72
2023/06/28 01:03:57;;;;;;;0.40;0.40;;;14.80;99.90;;;;;;5137174;27;20159;-70
2023/06/28 01:06:25;;;;;;;0.40;0.40;;;14.80;99.90;;;;;;5137082;27;20043;-71
2023/06/28 01:08:52;;;;;;;0.40;0.40;;;14.70;99.90;;;;;;5136903;27;20478;-71
2023/06/28 01:11:18;;;;;;;;;;;14.70;99.90;;;;;;5137116;27;20126;-71
2023/06/28 01:13:46;;;;;;;0.40;0.40;;;14.70;99.90;;;;;;5136435;27;20002;-71
2023/06/28 01:16:11;;;;;;;0.47;0.47;;;14.70;99.90;;;;;;5137159;27;20039;-71
2023/06/28 01:18:38;;;;;;;0.60;0.60;;;14.70;99.90;;;;;;5137235;27;20035;-71
2023/06/28 01:21:07;;;;;;;0.50;0.50;;;14.70;99.90;;;;;;5136797;27;20039;-71
2023/06/28 01:23:33;;;;;;;0.45;0.45;;;14.60;99.90;;;;;;5136392;27;20027;-71
2023/06/28 01:26:02;;;;;;;0.60;0.60;;;14.70;99.90;;;;;;5136537;27;20039;-70
2023/06/28 01:28:29;;;;;;;0.50;0.50;;;14.60;99.90;;;;;;5136564;27;20126;-71
2023/06/28 01:30:56;;;;;;;0.40;0.40;;;14.60;99.90;;;;;;5136349;27;20148;-70
2023/06/28 01:33:22;;;;;;;0.50;0.50;;;14.60;99.90;;;;;;5136875;27;20079;-70
2023/06/28 01:35:48;;;;;;;0.60;0.60;;;14.60;99.90;;;;;;5136550;27;20096;-71
2023/06/28 01:38:15;;;;;;;0.50;0.50;;;14.60;99.90;;;;;;5136420;27;20448;-71
2023/06/28 01:40:42;;;;;;;0.50;0.50;;;14.50;99.90;;;;;;5136326;27;20034;-70
2023/06/28 01:43:08;;;;;;;0.40;0.40;;;14.60;99.90;;;;;;5136747;27;20096;-71
2023/06/28 01:45:34;;;;;;;0.50;0.50;;;14.50;99.90;;;;;;5136145;27;20031;-71
2023/06/28 01:48:00;;;;;;;0.50;0.50;;;14.50;99.90;;;;;;5136192;27;20126;-70
2023/06/28 01:50:27;;;;;;;0.60;0.60;;;14.50;99.90;;;;;;5136212;27;20074;-70
2023/06/28 01:52:57;;;;;;;0.50;0.50;;;14.50;99.90;;;;;;5136037;27;20046;-71
2023/06/28 01:55:23;;;;;;;0.50;0.50;;;14.40;99.90;;;;;;5136116;27;20065;-71
2023/06/28 01:57:49;;;;;;;0.50;0.50;;;14.40;99.90;;;;;;5136257;27;20435;-70
2023/06/28 02:00:15;;;;;;;0.50;0.50;;;14.40;99.90;;;;;;5135943;27;20118;-70
2023/06/28 02:02:42;;;;;;;0.50;0.50;;;14.30;99.90;;;;;;5135573;27;20528;-71
2023/06/28 02:05:07;;;;;;;0.50;0.50;;;14.30;99.90;;;;;;5135849;27;20382;-71
2023/06/28 02:07:33;;;;;;;0.40;0.40;;;14.30;99.90;;;;;;5135980;27;20133;-71
2023/06/28 02:09:59;;;;;;;0.50;0.50;;;14.30;99.90;;;;;;5135800;27;20405;-70
2023/06/28 02:12:24;;;;;;;0.50;0.50;;;14.20;99.90;;;;;;5135736;27;20455;-71
2023/06/28 02:14:53;;;;;;;0.40;0.40;;;14.20;99.90;;;;;;5135611;27;20088;-71
2023/06/28 02:17:20;;;;;;;0.45;0.45;;;14.20;99.90;;;;;;5135613;27;20031;-71
2023/06/28 02:19:49;;;;;;;0.50;0.50;;;14.20;99.90;;;;;;5135586;27;20043;-71
2023/06/28 02:22:19;;;;;;;0.50;0.50;;;14.10;99.90;;;;;;5135548;27;20037;-71
2023/06/28 02:24:45;;;;;;;0.50;0.50;;;14.10;99.90;;;;;;5134474;27;20479;-71
2023/06/28 02:27:10;;;;;;;0.60;0.60;;;14.10;99.90;;;;;;5135289;27;20043;-70
2023/06/28 02:29:36;;;;;;;0.50;0.50;;;14.20;99.90;;;;;;5135843;27;20498;-70
2023/06/28 02:32:03;;;;;;;0.50;0.50;;;14.10;99.90;;;;;;5135222;27;20039;-71
2023/06/28 02:34:29;;;;;;;0.50;0.50;;;14.10;99.90;;;;;;5117229;27;20047;-71
2023/06/28 02:36:54;;;;;;;0.50;0.50;;;14.10;99.90;;;;;;5135251;27;20042;-71
2023/06/28 02:39:20;;;;;;;0.50;0.50;;;14.10;99.90;;;;;;5135283;27;20126;-71
2023/06/28 02:41:46;;;;;;;0.60;0.60;;;14.10;99.90;;;;;;5135228;27;20046;-71
2023/06/28 02:44:12;;;;;;;0.50;0.50;;;14.10;99.90;;;;;;5135565;27;20043;-70
2023/06/28 02:46:37;;;;;;;0.50;0.50;;;14.10;99.90;;;;;;5135150;27;20108;-71
2023/06/28 02:49:03;;;;;;;0.50;0.50;;;14.10;99.90;;;;;;5135112;27;20118;-70
2023/06/28 02:51:29;;;;;;;0.50;0.50;;;14.10;99.90;;;;;;5135045;27;20413;-71
2023/06/28 02:53:55;;;;;;;0.50;0.50;;;14.10;99.90;;;;;;5134999;27;20031;-71
2023/06/28 02:56:23;;;;;;;0.50;0.50;;;14.10;99.90;;;;;;5135394;27;20031;-70
2023/06/28 02:58:49;;;;;;;0.50;0.50;;;14.20;99.90;;;;;;5135203;27;20142;-70
2023/06/28 03:01:14;;;;;;;0.60;0.60;;;14.20;99.90;;;;;;5134814;27;20039;-71
2023/06/28 03:03:40;;;;;;;0.50;0.50;;;14.20;99.90;;;;;;5134349;27;20054;-71
2023/06/28 03:06:06;;;;;;;0.50;0.50;;;14.20;99.90;;;;;;5134865;27;20084;-70
2023/06/28 03:08:31;;;;;;;0.50;0.50;;;14.30;99.90;;;;;;5134452;27;20398;-71
2023/06/28 03:10:57;;;;;;;0.50;0.50;;;14.20;99.90;;;;;;5134766;27;20126;-71
2023/06/28 03:13:23;;;;;;;0.50;0.50;;;14.30;99.90;;;;;;5134705;27;20118;-71
2023/06/28 03:15:48;;;;;;;0.50;0.50;;;14.30;99.90;;;;;;5134728;27;20080;-71
2023/06/28 03:18:14;;;;;;;0.50;0.50;;;14.30;99.90;;;;;;5134807;28;20046;-71
2023/06/28 03:20:40;;;;;;;0.50;0.50;;;14.40;99.90;;;;;;5134848;28;20426;-71
2023/06/28 03:23:05;;;;;;;0.50;0.50;;;14.40;99.90;;;;;;5134614;28;20111;-71
2023/06/28 03:25:31;;;;;;;0.50;0.50;;;14.40;99.90;;;;;;5135280;28;20086;-71
2023/06/28 03:27:57;;;;;;;0.50;0.50;;;14.40;99.90;;;;;;5134643;28;20043;-70
2023/06/28 03:30:22;;;;;;;0.50;0.50;;;14.40;99.90;;;;;;5116929;28;20070;-70
2023/06/28 03:32:48;;;;;;;0.57;0.57;;;14.50;99.90;;;;;;5134577;28;20043;-70
2023/06/28 03:35:14;;;;;;;1.60;1.03;;;14.50;99.90;;;;;;5134504;28;20118;-71
2023/06/28 03:37:47;;;;;;;0.50;0.50;;;14.50;99.90;;;;;;5137575;27;20042;-71
2023/06/28 03:40:15;;;;;;;0.50;0.50;;;14.50;99.90;;;;;;5139352;27;20078;-71
2023/06/28 03:42:40;;;;;;;0.50;0.50;;;14.50;99.90;;;;;;5120545;27;20043;-71
2023/06/28 03:45:06;;;;;;;0.50;0.50;;;14.50;99.90;;;;;;5138558;27;20108;-71
2023/06/28 03:47:32;;;;;;;0.50;0.50;;;14.60;99.90;;;;;;5138546;27;20067;-70
2023/06/28 03:49:57;;;;;;;0.52;0.52;;;14.60;99.90;;;;;;5138544;27;20319;-71
2023/06/28 03:52:23;;;;;;;0.50;0.50;;;14.60;99.90;;;;;;5138477;27;20079;-71
2023/06/28 03:54:49;;;;;;;0.50;0.50;;;14.60;99.90;;;;;;5138469;27;20046;-71
2023/06/28 03:57:14;;;;;;;0.50;0.50;;;14.60;99.90;;;;;;5138422;27;20092;-71
2023/06/28 03:59:40;;;;;;;0.50;0.50;;;14.70;99.90;;;;;;5138395;27;20043;-71
2023/06/28 04:02:06;;;;;;;0.50;0.50;;;14.70;99.90;;;;;;5139163;27;20043;-71
2023/06/28 04:04:33;;;;;;;0.50;0.50;;;14.70;99.90;;;;;;5138412;27;20043;-71
2023/06/28 04:07:01;;;;;;;0.50;0.50;;;14.70;99.90;;;;;;5138128;27;20047;-70
2023/06/28 04:09:27;;;;;;;0.50;0.50;;;14.70;99.90;;;;;;5138186;27;20039;-70
2023/06/28 04:11:53;;;;;;;0.50;0.50;;;14.80;99.90;;;;;;5138333;27;20027;-71
2023/06/28 04:14:18;;;;;;;0.50;0.50;;;14.70;99.90;;;;;;5138135;27;20514;-71
2023/06/28 04:16:44;;;;;;;0.50;0.50;;;14.80;99.90;;;;;;5138014;27;20035;-71
2023/06/28 04:19:10;;;;;;;0.50;0.50;;;14.80;99.90;;;;;;5119878;27;20370;-71
2023/06/28 04:21:35;;;;;;;0.50;0.50;;;14.80;99.90;;;;;;5137829;27;20393;-70
2023/06/28 04:24:01;;;;;;;0.50;0.50;;;14.80;99.90;;;;;;5137781;27;20042;-70
2023/06/28 04:26:27;;;;;;;0.55;0.55;;;14.90;99.90;;;;;;5138067;27;20467;-70
2023/06/28 04:28:53;;;;;;;0.47;0.47;;;14.90;99.90;;;;;;5137820;27;20035;-70
2023/06/28 04:31:19;;;;;;;0.50;0.50;;;14.90;99.90;;;;;;5137786;27;20091;-71
2023/06/28 04:33:45;;;;;;;0.50;0.50;;;14.90;99.90;;;;;;5137796;27;20043;-70
2023/06/28 04:36:11;;;;;;;;;;;14.90;99.90;;;;;;5137975;27;20042;-70
2023/06/28 04:38:39;;;;;;;0.47;0.47;;;15.00;99.90;;;;;;5137508;27;19922;-71
2023/06/28 04:41:05;;;;;;;0.50;0.50;;;15.00;99.90;;;;;;5137608;27;20043;-70
2023/06/28 04:43:40;;;;;;;0.47;0.47;;;15.00;99.90;;;;;;5119115;27;20051;-71
2023/06/28 04:46:09;;;;;;;0.45;0.45;;;15.10;99.90;;;;;;5137471;27;20088;-70
2023/06/28 04:48:35;;;;;;;0.40;0.40;;;15.20;99.90;;;;;;5136499;27;20081;-71
2023/06/28 04:51:00;;;;;;;0.40;0.40;;;15.10;99.90;;;;;;5137300;27;20046;-70
2023/06/28 04:53:26;;;;;;;0.40;0.40;;;15.20;99.90;;;;;;5137031;27;20039;-70
2023/06/28 04:55:51;;;;;;;0.50;0.50;;;15.30;99.90;;;;;;5137272;27;20054;-71
2023/06/28 04:58:17;;;;;;;0.50;0.50;;;15.30;99.90;;;;;;5137345;27;20039;-71
2023/06/28 05:00:43;;;;;;;0.40;0.40;;;15.30;99.90;;;;;;5137208;27;20078;-71
2023/06/28 05:03:10;;;;;;;0.40;0.40;;;15.40;99.90;;;;;;5136991;27;20139;-70
2023/06/28 05:05:36;;;;;;;0.40;0.40;;;15.40;99.90;;;;;;5136946;27;20047;-71
2023/06/28 05:08:03;;;;;;;0.40;0.40;;;16.10;99.90;;;;;;5137025;27;20038;-71
2023/06/28 05:10:31;;;;;;;0.50;0.50;;;15.40;99.90;;;;;;5153001;27;20451;-70
2023/06/28 05:12:56;;;;;;;0.40;0.40;;;15.50;99.90;;;;;;5136906;27;20375;-71
2023/06/28 05:15:22;;;;;;;0.47;0.47;;;15.50;99.90;;;;;;5136923;27;20045;-70
2023/06/28 05:17:48;;;;;;;0.43;0.43;;;15.50;99.90;;;;;;5136747;27;20038;-71
2023/06/28 05:20:14;;;;;;;0.40;0.40;;;15.60;99.90;;;;;;5136771;27;20042;-70
2023/06/28 05:22:49;;;;;;;0.40;0.40;;;15.60;99.90;;;;;;5136737;27;20535;-71
2023/06/28 05:25:15;;;;;;;0.40;0.40;;;15.60;99.90;;;;;;5136794;27;20035;-70
2023/06/28 05:27:41;;;;;;;0.40;0.40;;;15.60;99.90;;;;;;5136630;27;20079;-70
2023/06/28 05:30:08;;;;;;;0.50;0.50;;;15.70;99.90;;;;;;5136610;27;20039;-71
2023/06/28 05:32:34;;;;;;;0.40;0.40;;;15.60;99.90;;;;;;5136567;27;20080;-70
2023/06/28 05:35:02;;;;;;;0.40;0.40;;;15.70;99.90;;;;;;5136846;27;20139;-71
2023/06/28 05:37:31;;;;;;;0.40;0.40;;;15.70;99.90;;;;;;5136486;27;20039;-71
2023/06/28 05:39:57;;;;;;;0.30;0.30;;;15.70;99.90;;;;;;5136415;27;20038;-71
2023/06/28 05:42:22;;;;;;;0.40;0.40;;;15.80;99.90;;;;;;5136351;27;20050;-70
2023/06/28 05:44:48;;;;;;;0.40;0.40;;;15.80;99.90;;;;;;5136359;27;20043;-70
2023/06/28 05:47:14;;;;;;;0.37;0.37;;;15.90;99.90;;;;;;5136201;27;20046;-71
2023/06/28 05:49:42;;;;;;;0.40;0.40;;;15.90;99.90;;;;;;5136280;27;20459;-70
2023/06/28 05:52:07;;;;;;;0.40;0.40;;;16.00;99.90;;;;;;5136282;27;20039;-70
2023/06/28 05:54:33;;;;;;;0.40;0.40;;;16.00;99.90;;;;;;5136157;27;20041;-70
2023/06/28 05:56:58;;;;;;;0.40;0.40;;;16.10;99.90;;;;;;5135973;27;20490;-71
2023/06/28 05:59:24;;;;;;;0.40;0.40;;;16.10;99.90;;;;;;5136064;27;20454;-71
2023/06/28 06:01:50;;;;;;;0.50;0.50;;;16.10;99.90;;;;;;5135979;27;20043;-71
2023/06/28 06:04:15;;;;;;;0.40;0.40;;;16.20;99.90;;;;;;5117587;27;20046;-71
2023/06/28 06:06:41;;;;;;;1.33;1.23;;;16.20;99.90;;;;;;5136274;27;20368;-70
2023/06/28 06:09:07;;;;;;;0.57;0.57;;;16.30;99.90;;;;;;5135888;27;20031;-70
2023/06/28 06:11:32;;;;;;;0.30;0.30;;;16.30;99.90;;;;;;5135796;27;20039;-71
2023/06/28 06:13:58;;;;;;;0.40;0.40;;;16.30;99.90;;;;;;5135868;27;20042;-70
2023/06/28 06:16:23;;;;;;;0.40;0.40;;;16.40;99.90;;;;;;5135678;27;20035;-71
2023/06/28 06:18:49;;;;;;;0.60;0.60;;;16.50;99.90;;;;;;5135296;27;20084;-70
2023/06/28 06:21:15;;;;;;;0.53;0.53;;;16.50;99.90;;;;;;5117677;27;20427;-70
2023/06/28 06:23:40;;;;;;;0.40;0.40;;;16.50;99.90;;;;;;5117379;27;20043;-72
2023/06/28 06:26:06;;;;;;;0.40;0.40;;;16.60;99.90;;;;;;5135478;27;20356;-71
2023/06/28 06:28:31;;;;;;;0.40;0.40;;;16.60;99.90;;;;;;5135505;27;20374;-71
2023/06/28 06:30:57;;;;;;;0.47;0.47;;;16.70;99.90;;;;;;5135422;27;20041;-71
2023/06/28 06:33:23;;;;;;;0.40;0.40;;;16.70;99.90;;;;;;5135352;27;20031;-71
2023/06/28 06:35:49;;;;;;;0.40;0.40;;;16.90;99.90;;;;;;5135784;27;20042;-71
2023/06/28 06:38:15;;;;;;;0.60;0.60;;;16.90;99.90;;;;;;5135223;27;20105;-71
2023/06/28 06:40:40;;;;;;;0.40;0.40;;;17.00;99.90;;;;;;5135350;27;20094;-71
2023/06/28 06:43:06;;;;;;;0.40;0.40;;;17.10;99.90;;;;;;5135256;27;20534;-70
2023/06/28 06:45:31;;;;;;;0.80;0.80;;;17.10;99.90;;;;;;5135125;27;20035;-70
2023/06/28 06:47:57;;;;;;;0.40;0.40;;;17.10;99.90;;;;;;5135056;27;20078;-71
2023/06/28 06:50:23;;;;;;;0.40;0.40;;;17.00;99.90;;;;;;5135117;27;20070;-71
2023/06/28 06:52:50;;;;;;;0.33;0.33;;;17.00;99.90;;;;;;5135095;27;20448;-70
2023/06/28 06:55:15;;;;;;;0.40;0.40;;;16.90;99.90;;;;;;5134999;27;20383;-71
2023/06/28 06:57:41;;;;;;;0.40;0.40;;;16.90;99.90;;;;;;5116733;27;20133;-71
2023/06/28 07:00:08;;;;;;;0.40;0.40;;;16.90;99.90;;;;;;5134982;27;20031;-71
2023/06/28 07:02:34;;;;;;;0.40;0.40;;;17.00;99.90;;;;;;5134570;27;20058;-71
2023/06/28 07:05:00;;;;;;;0.40;0.40;;;17.00;99.90;;;;;;5135297;27;20043;-71
2023/06/28 07:07:25;;;;;;;0.40;0.40;;;17.10;99.90;;;;;;5151007;27;20042;-71
2023/06/28 07:09:51;;;;;;;0.40;0.40;;;17.10;99.90;;;;;;5134640;27;20043;-70
2023/06/28 07:12:17;;;;;;;0.40;0.40;;;17.10;99.90;;;;;;5134105;27;20046;-71
2023/06/28 07:14:42;;;;;;;0.40;0.40;;;17.10;99.90;;;;;;5134776;27;20060;-70
2023/06/28 07:17:08;;;;;;;0.40;0.40;;;17.20;99.90;;;;;;5134451;27;20050;-71
2023/06/28 07:19:35;;;;;;;0.40;0.40;;;17.20;99.90;;;;;;5134753;28;20046;-71
2023/06/28 07:22:01;;;;;;;0.43;0.43;;;17.30;99.90;;;;;;5134525;28;20047;-71
2023/06/28 07:24:26;;;;;;;0.40;0.40;;;17.30;99.90;;;;;;5134917;28;20530;-71
2023/06/28 07:26:52;;;;;;;0.40;0.40;;;17.30;99.90;;;;;;5116498;28;20060;-71
2023/06/28 07:29:18;;;;;;;0.50;0.50;;;17.30;99.90;;;;;;5134346;28;20432;-71
2023/06/28 07:31:43;;;;;;;0.53;0.53;;;17.30;99.90;;;;;;5134551;28;20039;-71
2023/06/28 07:34:09;;;;;;;0.40;0.40;;;17.30;99.90;;;;;;5134632;28;20031;-70
2023/06/28 07:36:34;;;;;;;0.40;0.40;;;17.20;99.90;;;;;;5134574;28;20039;-70
2023/06/28 07:39:00;;;;;;;0.40;0.40;;;17.20;99.90;;;;;;5134726;28;20092;-70
2023/06/28 07:41:26;;;;;;;0.40;0.40;;;17.20;99.90;;;;;;5134796;28;20093;-71
2023/06/28 07:43:52;;;;;;;0.30;0.30;;;17.10;99.90;;;;;;5134605;28;20039;-71
2023/06/28 07:46:17;;;;;;;0.50;0.50;;;17.10;99.90;;;;;;5134546;28;20057;-71
2023/06/28 07:48:43;;;;;;;0.50;0.50;;;17.10;99.90;;;;;;5134360;28;20378;-70
2023/06/28 07:51:10;;;;;;;0.57;0.57;;;17.00;99.90;;;;;;5134807;28;20046;-70
2023/06/28 07:53:35;;;;;;;0.40;0.40;;;16.90;99.90;;;;;;5134183;28;20039;-71
2023/06/28 07:56:01;;;;;;;0.43;0.43;;;16.90;99.90;;;;;;5134405;28;20043;-71
2023/06/28 07:58:27;;;;;;;0.40;0.40;;;16.90;99.90;;;;;;5134113;28;20039;-71
2023/06/28 08:00:53;;;;;;;0.40;0.40;;;16.90;99.90;;;;;;5134419;28;20050;-70
2023/06/28 08:03:19;;;;;;;0.40;0.40;;;16.90;99.90;;;;;;5134161;28;20055;-71
2023/06/28 08:05:45;;;;;;;0.30;0.30;;;16.90;99.90;;;;;;5134223;28;20043;-70
2023/06/28 08:08:11;;;;;;;0.35;0.35;;;16.90;99.90;;;;;;5134304;28;20089;-70
2023/06/28 08:10:37;;;;;;;0.80;0.80;;;16.90;99.90;;;;;;5134280;28;20082;-70
2023/06/28 08:13:02;;;;;;;0.40;0.40;;;16.90;99.90;;;;;;5134287;28;20038;-71
2023/06/28 08:15:28;;;;;;;0.53;0.53;;;17.00;99.90;;;;;;5134213;28;20039;-71
2023/06/28 08:17:53;;;;;;;0.50;0.50;;;17.10;99.90;;;;;;5134127;28;20118;-70
2023/06/28 08:20:19;;;;;;;0.40;0.40;;;17.10;99.90;;;;;;5134161;28;20498;-70
2023/06/28 08:22:45;;;;;;;0.40;0.40;;;17.20;99.90;;;;;;5134480;27;20375;-70
2023/06/28 08:25:10;;;;;;;0.40;0.40;;;17.30;99.90;;;;;;5137578;27;20498;-71
2023/06/28 08:27:36;;;;;;;0.93;0.93;;;17.40;99.90;;;;;;5137877;27;20039;-71
2023/06/28 08:30:03;;;;;;;0.70;0.70;;;17.40;99.90;;;;;;5137830;27;20054;-70
2023/06/28 08:32:28;;;;;;;0.40;0.40;;;17.50;99.90;;;;;;5137693;27;20077;-71
2023/06/28 08:34:56;;;;;;;0.43;0.43;;;17.50;99.90;;;;;;5137690;27;20079;-71
2023/06/28 08:37:23;;;;;;;0.40;0.40;;;17.50;99.90;;;;;;5137140;27;20051;-70
2023/06/28 08:39:48;;;;;;;0.40;0.40;;;17.30;99.90;;;;;;5137587;27;20037;-70
2023/06/28 08:42:16;;;;;;;0.40;0.40;;;17.30;99.90;;;;;;5137316;27;20473;-70
2023/06/28 08:44:44;;;;;;;0.50;0.50;;;17.30;99.90;;;;;;5137435;27;20382;-71
2023/06/28 08:47:10;;;;;;;0.40;0.40;;;17.40;99.90;;;;;;5137426;27;20079;-71
2023/06/28 08:49:36;;;;;;;0.40;0.40;;;17.30;99.90;;;;;;5137441;27;20115;-72
2023/06/28 08:52:03;;;;;;;0.40;0.40;;;17.30;99.90;;;;;;5137343;27;20097;-71
2023/06/28 08:54:30;;;;;;;0.40;0.40;;;17.40;99.90;;;;;;5137350;27;20035;-72
2023/06/28 08:56:56;;;;;;;0.50;0.50;;;17.40;99.90;;;;;;5118954;27;20505;-71
2023/06/28 08:59:22;;;;;;;0.40;0.40;;;17.50;99.90;;;;;;5137169;27;20059;-71
2023/06/28 09:01:50;;;;;;;0.40;0.40;;;17.60;99.90;;;;;;5137156;27;20046;-71
2023/06/28 09:04:17;;;;;;;0.40;0.40;;;17.70;99.90;;;;;;5137466;27;20047;-71
2023/06/28 09:06:43;;;;;;;0.40;0.40;;;17.80;99.90;;;;;;5137155;27;20463;-72
2023/06/28 09:09:10;;;;;;;0.40;0.40;;;17.80;99.90;;;;;;5137052;27;20039;-71
2023/06/28 09:11:36;;;;;;;;;;;17.80;99.90;;;;;;5153652;27;20043;-72
2023/06/28 09:14:02;;;;;;;0.40;0.40;;;17.80;99.90;;;;;;5136998;27;19959;-71
2023/06/28 09:16:29;;;;;;;0.40;0.40;;;17.90;99.90;;;;;;5136842;27;20043;-72
2023/06/28 09:18:54;;;;;;;;;;;17.90;99.90;;;;;;5137726;27;20061;-71
2023/06/28 09:21:28;;;;;;;0.60;0.60;;;17.90;99.90;;;;;;5136687;27;19916;-72
2023/06/28 09:23:54;;;;;;;0.57;0.57;;;18.00;99.90;;;;;;5136675;27;20039;-72
2023/06/28 09:26:20;;;;;;;0.50;0.50;;;18.00;99.90;;;;;;5136732;27;20470;-71
2023/06/28 09:28:46;;;;;;;0.40;0.40;;;18.00;99.90;;;;;;5136742;27;20043;-72
2023/06/28 09:31:18;;;;;;;0.40;0.40;;;18.10;99.90;;;;;;5137079;27;20045;-72
2023/06/28 09:33:43;;;;;;;0.40;0.40;;;18.00;99.90;;;;;;5136312;27;20558;-72
2023/06/28 09:36:10;;;;;;;0.40;0.40;;;18.00;99.90;;;;;;5136574;27;20118;-72
2023/06/28 09:38:44;;;;;;;0.50;0.50;;;17.90;99.90;;;;;;5136460;27;20050;-72
2023/06/28 09:41:10;;;;;;;0.57;0.57;;;17.90;99.90;;;;;;5136342;27;20043;-72
2023/06/28 09:43:36;;;;;;;0.40;0.40;;;17.90;99.90;;;;;;5136342;27;20371;-72
2023/06/28 09:46:12;;;;;;;0.50;0.50;;;18.00;99.90;;;;;;5136252;27;20040;-72
2023/06/28 09:48:42;;;;;;;0.40;0.40;;;18.00;99.90;;;;;;5136387;27;20039;-71
2023/06/28 09:51:08;;;;;;;0.57;0.57;;;18.00;99.90;;;;;;5136500;27;20027;-71
2023/06/28 09:53:45;;;;;;;0.50;0.50;;;17.90;99.90;;;;;;5136211;27;20125;-72
2023/06/28 09:56:11;;;;;;;0.40;0.40;;;17.90;99.90;;;;;;5136131;27;20039;-71
2023/06/28 09:58:36;;;;;;;0.50;0.50;;;17.90;99.90;;;;;;5136540;27;20455;-72
2023/06/28 10:01:03;;;;;;;0.40;0.40;;;17.90;99.90;;;;;;5136038;27;20035;-71
2023/06/28 10:03:29;;;;;;;0.50;0.50;;;17.90;99.90;;;;;;5135598;27;20078;-72
2023/06/28 10:05:56;;;;;;;0.50;0.50;;;17.90;99.90;;;;;;5135899;27;20119;-72
2023/06/28 10:08:23;;;;;;;0.40;0.40;;;18.00;99.90;;;;;;5135891;27;20043;-71
2023/06/28 10:10:54;;;;;;;0.50;0.50;;;17.90;99.90;;;;;;5135849;27;20114;-71
2023/06/28 10:13:21;;;;;;;0.40;0.40;;;18.00;99.90;;;;;;5136250;27;20053;-71
2023/06/28 10:15:48;;;;;;;0.40;0.40;;;17.90;99.90;;;;;;5135643;27;20039;-72
2023/06/28 10:18:15;;;;;;;0.65;0.65;;;17.90;99.90;;;;;;5135799;27;20039;-71
2023/06/28 10:20:42;;;;;;;0.40;0.40;;;17.90;99.90;;;;;;5135762;27;20046;-72
2023/06/28 10:23:13;;;;;;;0.50;0.50;;;17.90;99.90;;;;;;5152040;27;20078;-72
2023/06/28 10:25:44;;;;;;;0.50;0.50;;;17.90;99.90;;;;;;5135520;27;20027;-72
2023/06/28 10:28:12;;;;;;;0.60;0.60;;;17.80;99.90;;;;;;5135918;27;20408;-72
2023/06/28 10:30:41;;;;;;;2.75;2.53;;;17.80;99.90;;;;;;5135736;27;20477;-72
2023/06/28 10:33:08;;;;;;;0.82;0.60;;;17.80;99.90;;;;;;5135646;27;20117;-72
2023/06/28 10:35:34;;;;;;;;;;;17.80;99.90;;;;;;5135692;27;20039;-72
2023/06/28 10:38:00;;;;;;;0.40;0.40;;;17.90;99.90;;;;;;5135286;27;19915;-72
2023/06/28 10:40:26;;;;;;;0.70;0.70;;;17.90;99.90;;;;;;5135366;27;20401;-72
2023/06/28 10:42:52;;;;;;;0.77;0.77;;;18.00;99.90;;;;;;5135271;27;20043;-72
2023/06/28 10:45:30;;;;;;;0.50;0.50;;;18.00;99.90;;;;;;5135077;27;20039;-72
2023/06/28 10:47:56;;;;;;;0.50;0.50;;;18.00;99.90;;;;;;5134771;27;20510;-72
2023/06/28 10:50:22;;;;;;;0.60;0.60;;;18.00;99.90;;;;;;5135087;27;20122;-72
2023/06/28 10:52:51;;;;;;;0.50;0.50;;;18.10;99.90;;;;;;5135085;27;20042;-72
2023/06/28 10:55:18;;;;;;;0.50;0.50;;;18.00;99.90;;;;;;5135036;27;20050;-72
2023/06/28 10:57:44;;;;;;;;;;;18.00;99.90;;;;;;5135397;27;20039;-71
2023/06/28 11:00:49;;;;;;;0.50;0.50;;;18.00;99.90;;;;;;5135031;27;20009;-71
2023/06/28 11:03:15;;;;;;;0.40;0.40;;;18.00;99.90;;;;;;5132003;27;20451;-72
2023/06/28 11:05:45;;;;;;;;;;;18.10;99.90;;;;;;5136107;27;20421;-72
2023/06/28 11:08:12;;;;;;;0.40;0.40;;;18.10;99.90;;;;;;5116607;27;19915;-73
2023/06/28 11:10:42;;;;;;;0.50;0.50;;;18.00;99.90;;;;;;5134853;27;20047;-72
2023/06/28 11:13:09;;;;;;;0.60;0.60;;;18.00;99.90;;;;;;5135020;27;20414;-72
2023/06/28 11:15:37;;;;;;;0.68;0.68;;;18.00;99.90;;;;;;5134802;27;20045;-72
2023/06/28 11:18:19;;;;;;;0.50;0.50;;;18.00;99.90;;;;;;5135241;27;20046;-73
2023/06/28 11:20:53;;;;;;;0.50;0.50;;;18.00;99.90;;;;;;5135039;28;20160;-72
2023/06/28 11:23:28;;;;;;;0.40;0.40;;;18.00;99.90;;;;;;5134727;28;20421;-72
2023/06/28 11:26:02;;;;;;;1.08;1.02;;;18.00;99.90;;;;;;5134533;28;20069;-71
2023/06/28 11:28:33;;;;;;;0.50;0.50;;;18.00;99.90;;;;;;5116375;28;20084;-72
2023/06/28 11:31:20;;;;;;;0.40;0.40;;;18.00;99.90;;;;;;5116170;28;20522;-72
2023/06/28 11:33:48;;;;;;;0.50;0.50;;;18.10;99.90;;;;;;5134716;28;20352;-72
2023/06/28 11:36:14;;;;;;;0.40;0.40;;;18.10;99.90;;;;;;5134540;28;20035;-72
2023/06/28 11:38:44;;;;;;;1.85;1.65;;;18.20;99.90;;;;;;5134217;28;20430;-72
2023/06/28 11:41:09;;;;;;;0.90;0.90;;;18.30;99.90;;;;;;5134470;28;20089;-72
2023/06/28 11:43:35;;;;;;;0.40;0.40;;;18.30;99.90;;;;;;5134156;28;20043;-72
2023/06/28 11:46:01;;;;;;;0.50;0.50;;;18.40;99.90;;;;;;5134421;28;20031;-72
2023/06/28 11:48:27;;;;;;;0.50;0.50;;;18.50;99.90;;;;;;5134427;28;20043;-72
2023/06/28 11:51:04;;;;;;;0.50;0.50;;;18.50;99.90;;;;;;5150707;27;20352;-72
2023/06/28 11:53:31;;;;;;;0.40;0.40;;;18.60;99.90;;;;;;5134698;28;20039;-72
2023/06/28 11:55:58;;;;;;;0.40;0.40;;;18.60;99.90;;;;;;5134409;28;20079;-73
2023/06/28 11:58:32;;;;;;;0.82;0.82;;;18.70;99.90;;;;;;5153350;27;20047;-73
2023/06/28 12:01:03;;;;;;;0.63;0.63;;;18.80;99.90;;;;;;5138425;27;20459;-71
2023/06/28 12:03:36;;;;;;;4.03;3.47;;;18.80;99.90;;;;;;5138505;27;20130;-71
2023/06/28 12:06:04;;;;;;;0.50;0.50;;;18.80;99.90;;;;;;5138240;27;20088;-72
2023/06/28 12:08:37;;;;;;;0.65;0.65;;;18.80;99.90;;;;;;5138207;27;20035;-72
2023/06/28 12:11:12;;;;;;;0.50;0.50;;;18.70;99.90;;;;;;5138135;27;20126;-72
2023/06/28 12:13:39;;;;;;;1.08;1.02;;;18.70;99.90;;;;;;5138142;27;20039;-71
2023/06/28 12:16:12;;;;;;;;;;;18.70;99.90;;;;;;5138473;27;20039;-72
2023/06/28 12:19:00;;;;;;;0.40;0.40;;;18.80;99.90;;;;;;5138053;27;19915;-72
2023/06/28 12:21:30;;;;;;;0.60;0.60;;;18.80;99.90;;;;;;5137843;27;20059;-72
2023/06/28 12:24:16;;;;;;;0.45;0.45;;;18.80;99.90;;;;;;5137930;27;20035;-72
2023/06/28 12:26:48;;;;;;;0.93;0.50;;;18.90;99.90;;;;;;5137924;27;20378;-72
2023/06/28 12:29:20;;;;;;;0.40;0.40;;;18.90;99.90;;;;;;5137976;27;20376;-72
2023/06/28 12:31:48;;;;;;;0.40;0.40;;;19.00;99.90;;;;;;5138181;27;20032;-72
2023/06/28 12:34:27;;;;;;;0.30;0.30;;;18.90;99.90;;;;;;5137752;27;20054;-72
2023/06/28 12:36:58;;;;;;;0.52;0.50;;;19.00;99.90;;;;;;5137777;27;20039;-72
2023/06/28 12:39:30;;;;;;;0.40;0.40;;;18.90;99.90;;;;;;5137587;27;20046;-72
2023/06/28 12:42:12;;;;;;;0.40;0.40;;;19.00;99.90;;;;;;5137610;27;20035;-71
2023/06/28 12:44:51;;;;;;;0.40;0.40;;;19.00;99.90;;;;;;5137412;27;20039;-72
2023/06/28 12:47:29;;;;;;;1.05;1.02;;;19.00;99.90;;;;;;5137584;27;20072;-72